createdAt,value
2022-09-12T00:02:04.061Z,7.38
2022-09-12T00:04:31.518Z,7.90
2022-09-12T00:06:58.922Z,7.30
2022-09-12T00:09:25.925Z,10.38
2022-09-12T00:11:53.036Z,8.18
2022-09-12T00:14:20.339Z,7.65
2022-09-12T00:16:47.382Z,7.68
2022-09-12T00:19:14.819Z,8.30
2022-09-12T00:21:42.166Z,8.20
2022-09-12T00:24:10.702Z,7.95
2022-09-12T00:26:38.318Z,8.13
2022-09-12T00:29:05.563Z,8.93
2022-09-12T00:31:32.758Z,9.30
2022-09-12T00:34:03.802Z,9.27
2022-09-12T00:36:31.163Z,9.73
2022-09-12T00:38:59.216Z,9.02
2022-09-12T00:41:44.795Z,10.02
2022-09-12T00:44:23.781Z,9.50
2022-09-12T00:46:59.471Z,9.20
2022-09-12T00:49:38.305Z,9.27
2022-09-12T00:52:21.987Z,8.88
2022-09-12T00:54:55.661Z,9.32
2022-09-12T00:57:28.062Z,9.25
2022-09-12T01:00:05.913Z,9.38
2022-09-12T01:02:33.025Z,9.20
2022-09-12T01:05:00.667Z,8.65
2022-09-12T01:07:28.529Z,9.40
2022-09-12T01:09:56.033Z,8.82
2022-09-12T01:12:23.307Z,8.90
2022-09-12T01:14:50.560Z,9.77
2022-09-12T01:17:17.547Z,9.57
2022-09-12T01:20:22.095Z,9.25
2022-09-12T01:23:20.613Z,10.23
2022-09-12T01:26:15.051Z,10.10
2022-09-12T01:29:16.111Z,9.15
2022-09-12T01:31:48.437Z,8.65
2022-09-12T01:34:22.416Z,8.50
2022-09-12T01:37:01.749Z,8.15
2022-09-12T01:40:00.149Z,8.10
2022-09-12T01:42:41.312Z,8.43
2022-09-12T01:45:18.630Z,7.65
2022-09-12T01:48:02.126Z,7.68
2022-09-12T01:50:34.177Z,7.63
2022-09-12T01:53:23.181Z,8.35
2022-09-12T01:56:02.588Z,8.50
2022-09-12T01:58:38.347Z,8.43
2022-09-12T02:01:11.523Z,8.65
2022-09-12T02:03:50.990Z,8.73
2022-09-12T02:06:29.813Z,9.85
2022-09-12T02:09:07.760Z,9.70
2022-09-12T02:11:38.649Z,9.60
2022-09-12T02:14:15.954Z,9.88
2022-09-12T02:16:49.735Z,9.68
2022-09-12T02:19:21.044Z,9.70
2022-09-12T02:21:56.768Z,10.00
2022-09-12T02:24:30.571Z,10.18
2022-09-12T02:27:03.528Z,10.23
2022-09-12T02:29:30.764Z,9.73
2022-09-12T02:31:59.390Z,10.77
2022-09-12T02:34:40.188Z,10.65
2022-09-12T02:37:30.029Z,10.82
2022-09-12T02:39:58.188Z,10.68
2022-09-12T02:42:25.743Z,10.88
2022-09-12T02:44:55.700Z,11.90
2022-09-12T02:47:31.636Z,11.65
2022-09-12T02:50:00.453Z,11.95
2022-09-12T02:52:28.915Z,10.98
2022-09-12T02:54:58.424Z,11.00
2022-09-12T02:57:25.803Z,10.90
2022-09-12T02:59:57.456Z,11.77
2022-09-12T03:02:54.878Z,12.02
2022-09-12T03:05:56.805Z,12.85
2022-09-12T03:08:44.435Z,11.50
2022-09-12T03:11:14.792Z,11.75
2022-09-12T03:16:22.987Z,11.60
2022-09-12T03:19:03.761Z,11.25
2022-09-12T03:21:49.912Z,12.50
2022-09-12T03:24:29.729Z,12.73
2022-09-12T03:27:16.719Z,13.57
2022-09-12T03:29:46.351Z,13.48
2022-09-12T03:32:13.589Z,14.65
2022-09-12T03:34:40.663Z,15.25
2022-09-12T03:37:07.672Z,15.10
2022-09-12T03:39:34.654Z,15.95
2022-09-12T03:42:01.591Z,14.75
2022-09-12T03:44:28.807Z,16.27
2022-09-12T03:46:55.833Z,15.80
2022-09-12T03:49:22.779Z,16.13
2022-09-12T03:51:49.749Z,14.82
2022-09-12T03:54:17.104Z,16.10
2022-09-12T03:56:44.549Z,16.73
2022-09-12T03:59:11.553Z,15.93
2022-09-12T04:01:38.602Z,18.90
2022-09-12T04:04:05.608Z,17.73
2022-09-12T04:06:32.587Z,18.88
2022-09-12T04:09:00.440Z,18.60
2022-09-12T04:11:27.411Z,18.63
2022-09-12T04:13:54.536Z,16.42
2022-09-12T04:16:21.723Z,16.20
2022-09-12T04:18:48.829Z,17.33
2022-09-12T04:21:18.513Z,17.10
2022-09-12T04:23:45.752Z,16.17
2022-09-12T04:26:14.018Z,15.40
2022-09-12T04:28:41.649Z,14.90
2022-09-12T04:31:12.998Z,15.82
2022-09-12T04:33:40.157Z,15.60
2022-09-12T04:36:10.598Z,14.40
2022-09-12T04:41:13.159Z,14.05
2022-09-12T04:43:40.560Z,13.82
2022-09-12T04:46:09.328Z,14.27
2022-09-12T04:48:37.423Z,15.27
2022-09-12T04:51:16.685Z,14.77
2022-09-12T04:53:47.681Z,18.23
2022-09-12T04:56:14.976Z,14.93
2022-09-12T04:58:42.237Z,14.57
2022-09-12T05:01:10.587Z,14.30
2022-09-12T05:03:43.285Z,14.80
2022-09-12T05:06:14.330Z,13.48
2022-09-12T05:08:41.950Z,15.82
2022-09-12T05:11:13.928Z,20.63
2022-09-12T05:13:41.333Z,17.15
2022-09-12T05:16:11.816Z,24.33
2022-09-12T05:18:39.692Z,21.80
2022-09-12T05:21:09.586Z,22.00
2022-09-12T05:23:36.730Z,20.83
2022-09-12T05:26:06.017Z,19.27
2022-09-12T05:28:35.912Z,17.33
2022-09-12T05:31:04.425Z,15.05
2022-09-12T05:33:35.549Z,13.73
2022-09-12T05:36:04.364Z,12.07
2022-09-12T05:38:31.308Z,12.20
2022-09-12T05:41:14.675Z,12.65
2022-09-12T05:43:45.302Z,12.45
2022-09-12T05:46:17.711Z,11.95
2022-09-12T05:48:46.862Z,11.48
2022-09-12T05:51:25.580Z,12.27
2022-09-12T05:53:58.140Z,12.35
2022-09-12T05:56:28.014Z,11.15
2022-09-12T05:59:03.471Z,12.95
2022-09-12T06:01:32.455Z,12.93
2022-09-12T06:04:01.773Z,10.57
2022-09-12T06:06:31.316Z,12.43
2022-09-12T06:09:01.026Z,10.73
2022-09-12T06:11:32.137Z,9.60
2022-09-12T06:14:00.138Z,11.50
2022-09-12T06:16:29.765Z,10.27
2022-09-12T06:18:59.895Z,10.65
2022-09-12T06:21:28.598Z,10.40
2022-09-12T06:23:55.799Z,9.75
2022-09-12T06:26:26.445Z,8.73
2022-09-12T06:28:55.407Z,8.82
2022-09-12T06:31:30.311Z,9.02
2022-09-12T06:34:01.240Z,8.93
2022-09-12T06:36:31.890Z,7.72
2022-09-12T06:41:31.198Z,5.83
2022-09-12T06:43:59.316Z,7.68
2022-09-12T06:46:27.421Z,7.78
2022-09-12T06:48:57.221Z,6.82
2022-09-12T06:51:24.775Z,8.07
2022-09-12T06:53:52.478Z,7.88
2022-09-12T06:56:21.809Z,7.57
2022-09-12T06:58:51.032Z,6.78
2022-09-12T07:01:20.942Z,7.50
2022-09-12T07:03:52.798Z,6.85
2022-09-12T07:06:24.252Z,7.20
2022-09-12T07:08:51.653Z,8.02
2022-09-12T07:11:24.740Z,7.15
2022-09-12T07:13:54.081Z,6.68
2022-09-12T07:16:21.423Z,8.40
2022-09-12T07:18:57.295Z,7.97
2022-09-12T07:21:24.965Z,7.65
2022-09-12T07:23:55.410Z,8.57
2022-09-12T07:28:54.292Z,7.60
2022-09-12T07:31:24.563Z,7.68
2022-09-12T07:33:54.616Z,7.80
2022-09-12T07:36:25.409Z,7.40
2022-09-12T07:41:27.675Z,8.52
2022-09-12T07:43:56.882Z,8.10
2022-09-12T07:46:25.724Z,7.80
2022-09-12T07:48:54.130Z,8.55
2022-09-12T07:51:22.883Z,8.63
2022-09-12T07:53:50.706Z,8.88
2022-09-12T07:56:19.887Z,7.55
2022-09-12T07:58:47.539Z,7.63
2022-09-12T08:01:16.566Z,8.98
2022-09-12T08:03:45.998Z,8.73
2022-09-12T08:06:20.425Z,8.60
2022-09-12T08:08:48.929Z,8.63
2022-09-12T08:11:19.148Z,8.30
2022-09-12T08:13:47.442Z,9.68
2022-09-12T08:16:21.102Z,9.25
2022-09-12T08:18:49.580Z,10.00
2022-09-12T08:21:25.422Z,9.68
2022-09-12T08:23:58.108Z,11.38
2022-09-12T08:26:25.339Z,10.25
2022-09-12T08:28:53.546Z,11.73
2022-09-12T08:31:23.542Z,10.50
2022-09-12T08:33:51.179Z,11.07
2022-09-12T08:36:21.524Z,11.80
2022-09-12T08:39:00.029Z,11.38
2022-09-12T08:41:55.544Z,12.05
2022-09-12T08:45:00.695Z,10.98
2022-09-12T08:47:38.905Z,12.57
2022-09-12T08:50:12.234Z,13.02
2022-09-12T08:52:39.305Z,12.73
2022-09-12T08:55:13.516Z,13.90
2022-09-12T08:57:40.832Z,13.18
2022-09-12T09:00:14.085Z,12.07
2022-09-12T09:03:03.494Z,12.98
2022-09-12T09:05:58.086Z,14.02
2022-09-12T09:08:43.266Z,13.63
2022-09-12T09:11:34.516Z,15.00
2022-09-12T09:14:47.099Z,14.32
2022-09-12T09:17:20.359Z,14.73
2022-09-12T09:20:13.552Z,13.35
2022-09-12T09:22:46.635Z,13.35
2022-09-12T09:25:41.163Z,14.23
2022-09-12T09:28:16.968Z,13.25
2022-09-12T09:30:46.115Z,14.98
2022-09-12T09:33:21.589Z,13.57
2022-09-12T09:36:07.777Z,15.10
2022-09-12T09:38:59.996Z,13.57
2022-09-12T09:41:45.133Z,15.88
2022-09-12T09:44:12.113Z,16.35
2022-09-12T09:46:39.264Z,17.00
2022-09-12T09:49:07.964Z,16.13
2022-09-12T09:51:38.827Z,19.42
2022-09-12T09:54:31.885Z,17.92
2022-09-12T09:56:58.926Z,14.90
2022-09-12T09:59:32.062Z,18.60
2022-09-12T10:02:03.645Z,16.52
2022-09-12T10:04:39.204Z,16.52
2022-09-12T10:07:18.930Z,17.25
2022-09-12T10:10:06.349Z,19.38
2022-09-12T10:12:33.772Z,18.77
2022-09-12T10:15:20.643Z,18.30
2022-09-12T10:17:50.954Z,18.23
2022-09-12T10:23:18.915Z,18.48
2022-09-12T10:25:58.358Z,17.75
2022-09-12T10:28:37.521Z,19.55
2022-09-12T10:31:05.887Z,19.38
2022-09-12T10:33:42.817Z,17.70
2022-09-12T10:36:10.059Z,19.33
2022-09-12T10:38:37.365Z,18.60
2022-09-12T10:41:09.682Z,17.25
2022-09-12T10:43:39.186Z,16.40
2022-09-12T10:46:15.845Z,18.03
2022-09-12T10:48:44.771Z,18.30
2022-09-12T10:51:32.132Z,17.27
2022-09-12T10:54:03.397Z,17.40
2022-09-12T10:56:39.395Z,19.60
2022-09-12T10:59:41.539Z,17.13
2022-09-12T11:02:31.192Z,18.60
2022-09-12T11:05:04.251Z,16.70
2022-09-12T11:07:34.671Z,18.80
2022-09-12T11:12:58.465Z,18.92
2022-09-12T11:15:47.898Z,19.42
2022-09-12T11:18:29.878Z,18.02
2022-09-12T11:20:57.202Z,17.85
2022-09-12T11:23:42.793Z,18.92
2022-09-12T11:26:43.637Z,19.73
2022-09-12T11:29:16.490Z,20.05
2022-09-12T11:32:07.822Z,19.67
2022-09-12T11:34:58.354Z,17.85
2022-09-12T11:38:00.553Z,17.52
2022-09-12T11:40:36.659Z,18.40
2022-09-12T11:43:28.335Z,17.30
2022-09-12T11:46:01.530Z,18.83
2022-09-12T11:48:44.986Z,17.10
2022-09-12T11:51:21.029Z,18.75
2022-09-12T11:54:09.718Z,18.40
2022-09-12T11:56:43.365Z,17.58
2022-09-12T11:59:40.692Z,17.13
2022-09-12T12:02:15.233Z,16.00
2022-09-12T12:04:59.794Z,16.20
2022-09-12T12:07:27.225Z,15.82
2022-09-12T12:09:55.895Z,16.67
2022-09-12T12:12:28.145Z,30.00
2022-09-12T12:14:56.737Z,16.48
2022-09-12T12:17:25.668Z,15.75
2022-09-12T12:20:09.840Z,15.93
2022-09-12T12:22:37.500Z,14.48
2022-09-12T12:25:29.892Z,14.40
2022-09-12T12:28:01.596Z,13.75
2022-09-12T12:30:31.592Z,12.13
2022-09-12T12:33:10.827Z,12.90
2022-09-12T12:35:42.542Z,14.57
2022-09-12T12:38:45.007Z,11.68
2022-09-12T12:41:18.193Z,12.75
2022-09-12T12:43:49.121Z,12.25
2022-09-12T12:46:21.083Z,13.63
2022-09-12T12:49:17.539Z,12.35
2022-09-12T12:51:53.459Z,11.60
2022-09-12T12:54:30.627Z,10.90
2022-09-12T12:57:06.512Z,11.77
2022-09-12T12:59:34.202Z,10.85
2022-09-12T13:02:01.948Z,11.93
2022-09-12T13:04:32.749Z,10.65
2022-09-12T13:07:08.493Z,11.50
2022-09-12T13:09:48.748Z,10.40
2022-09-12T13:12:27.396Z,11.10
2022-09-12T13:15:02.625Z,11.88
2022-09-12T13:17:47.277Z,10.52
2022-09-12T13:20:27.982Z,10.18
2022-09-12T13:22:56.077Z,9.65
2022-09-12T13:25:34.910Z,10.90
2022-09-12T13:28:16.127Z,10.73
2022-09-12T13:30:47.660Z,9.10
2022-09-12T13:33:30.368Z,7.88
2022-09-12T13:36:00.271Z,8.57
2022-09-12T13:38:56.520Z,7.00
2022-09-12T13:41:38.710Z,7.80
2022-09-12T13:44:10.297Z,7.45
2022-09-12T13:46:40.726Z,7.18
2022-09-12T13:49:31.741Z,7.25
2022-09-12T13:52:17.588Z,7.32
2022-09-12T13:54:48.641Z,6.90
2022-09-12T13:57:41.374Z,7.40
2022-09-12T14:00:19.798Z,5.93
2022-09-12T14:02:48.391Z,6.53
2022-09-12T14:05:26.089Z,6.40
2022-09-12T14:07:59.377Z,5.90
2022-09-12T14:10:31.983Z,5.95
2022-09-12T14:13:01.504Z,6.30
2022-09-12T14:15:36.031Z,7.30
2022-09-12T14:18:06.011Z,5.63
2022-09-12T14:20:38.301Z,6.63
2022-09-12T14:23:27.671Z,5.50
2022-09-12T14:25:56.649Z,5.13
2022-09-12T14:28:24.237Z,6.18
2022-09-12T14:31:02.687Z,4.78
2022-09-12T14:33:47.652Z,5.43
2022-09-12T14:36:26.754Z,4.63
2022-09-12T14:39:15.747Z,5.22
2022-09-12T14:41:43.509Z,4.40
2022-09-12T14:44:17.862Z,5.22
2022-09-12T14:46:45.155Z,4.57
2022-09-12T14:49:18.914Z,4.75
2022-09-12T14:51:52.472Z,4.90
2022-09-12T14:54:28.662Z,6.50
2022-09-12T14:56:58.610Z,5.65
2022-09-12T14:59:39.282Z,5.07
2022-09-12T15:02:22.293Z,5.70
2022-09-12T15:05:20.417Z,5.25
2022-09-12T15:07:58.958Z,5.65
2022-09-12T15:10:35.739Z,4.32
2022-09-12T15:13:09.279Z,4.53
2022-09-12T15:15:37.807Z,4.65
2022-09-12T15:18:08.590Z,4.57
2022-09-12T15:20:40.990Z,3.90
2022-09-12T15:23:15.485Z,3.80
2022-09-12T15:25:42.772Z,4.25
2022-09-12T15:28:19.707Z,4.30
2022-09-12T15:30:50.499Z,4.05
2022-09-12T15:33:20.460Z,5.00
2022-09-12T15:35:47.593Z,4.40
2022-09-12T15:38:14.773Z,4.32
2022-09-12T15:40:41.865Z,4.25
2022-09-12T15:43:12.973Z,4.45
2022-09-12T15:45:43.348Z,4.72
2022-09-12T15:50:37.729Z,4.35
2022-09-12T15:53:05.020Z,4.32
2022-09-12T15:55:32.500Z,4.75
2022-09-12T15:58:04.890Z,4.80
2022-09-12T16:00:34.411Z,5.03
2022-09-12T16:03:01.894Z,5.60
2022-09-12T16:05:29.732Z,4.97
2022-09-12T16:07:56.771Z,5.13
2022-09-12T16:10:26.754Z,5.53
2022-09-12T16:12:53.968Z,5.88
2022-09-12T16:15:24.125Z,5.78
2022-09-12T16:17:51.999Z,6.10
2022-09-12T16:20:19.720Z,5.55
2022-09-12T16:22:47.202Z,5.68
2022-09-12T16:25:14.479Z,4.97
2022-09-12T16:27:42.097Z,5.43
2022-09-12T16:30:10.777Z,4.95
2022-09-12T16:32:37.926Z,5.90
2022-09-12T16:35:05.520Z,6.07
2022-09-12T16:37:34.749Z,6.43
2022-09-12T16:40:03.133Z,7.10
2022-09-12T16:42:31.225Z,6.38
2022-09-12T16:44:58.364Z,5.63
2022-09-12T16:47:25.491Z,6.10
2022-09-12T16:49:52.559Z,5.78
2022-09-12T16:52:19.823Z,6.40
2022-09-12T16:54:46.902Z,5.78
2022-09-12T16:57:14.107Z,5.70
2022-09-12T16:59:41.414Z,6.20
2022-09-12T17:02:14.481Z,6.15
2022-09-12T17:04:42.138Z,5.68
2022-09-12T17:07:09.307Z,5.95
2022-09-12T17:09:36.434Z,6.22
2022-09-12T17:12:04.250Z,6.47
2022-09-12T17:14:31.710Z,5.85
2022-09-12T17:16:58.969Z,6.00
2022-09-12T17:19:30.028Z,5.70
2022-09-12T17:21:57.969Z,9.98
2022-09-12T17:24:25.779Z,6.00
2022-09-12T17:26:53.791Z,5.63
2022-09-12T17:29:21.222Z,6.40
2022-09-12T17:31:48.923Z,5.90
2022-09-12T17:34:17.708Z,5.53
2022-09-12T17:36:48.704Z,5.03
2022-09-12T17:39:15.996Z,6.07
2022-09-12T17:41:50.987Z,5.93
2022-09-12T17:44:21.062Z,5.20
2022-09-12T17:46:49.688Z,5.10
2022-09-12T17:49:22.232Z,5.25
2022-09-12T17:51:52.227Z,5.50
2022-09-12T17:54:21.046Z,4.90
2022-09-12T17:56:52.502Z,5.20
2022-09-12T17:59:27.557Z,4.07
2022-09-12T18:02:13.724Z,4.82
2022-09-12T18:04:42.403Z,4.80
2022-09-12T18:07:10.423Z,4.50
2022-09-12T18:09:37.820Z,4.57
2022-09-12T18:12:05.654Z,4.15
2022-09-12T18:14:38.347Z,4.72
2022-09-12T18:17:08.995Z,4.50
2022-09-12T18:19:36.446Z,5.25
2022-09-12T18:22:06.847Z,4.80
2022-09-12T18:29:31.955Z,4.35
2022-09-12T18:31:59.514Z,4.80
2022-09-12T18:34:26.726Z,5.13
2022-09-12T18:36:55.273Z,5.38
2022-09-12T18:39:27.301Z,5.03
2022-09-12T18:41:57.125Z,5.55
2022-09-12T18:44:25.473Z,5.20
2022-09-12T18:46:53.178Z,5.75
2022-09-12T18:49:21.188Z,5.13
2022-09-12T18:51:49.861Z,6.80
2022-09-12T18:54:18.416Z,6.15
2022-09-12T18:56:47.774Z,5.80
2022-09-12T18:59:16.766Z,6.30
2022-09-12T19:01:52.657Z,5.68
2022-09-12T19:04:20.671Z,5.95
2022-09-12T19:06:48.447Z,6.85
2022-09-12T19:09:18.710Z,5.72
2022-09-12T19:11:50.707Z,5.97
2022-09-12T19:14:27.579Z,5.78
2022-09-12T19:16:55.822Z,5.57
2022-09-12T19:19:23.121Z,5.68
2022-09-12T19:21:50.204Z,5.70
2022-09-12T19:24:21.926Z,7.20
2022-09-12T19:26:51.555Z,5.93
2022-09-12T19:29:19.087Z,5.80
2022-09-12T19:31:46.645Z,6.15
2022-09-12T19:34:14.192Z,5.90
2022-09-12T19:36:45.258Z,5.95
2022-09-12T19:39:13.048Z,6.53
2022-09-12T19:41:40.479Z,5.82
2022-09-12T19:44:07.908Z,6.10
2022-09-12T19:46:35.554Z,5.68
2022-09-12T19:49:03.882Z,5.85
2022-09-12T19:51:31.715Z,5.32
2022-09-12T19:53:58.915Z,7.60
2022-09-12T19:56:25.986Z,6.32
2022-09-12T19:58:56.376Z,6.80
2022-09-12T20:01:29.792Z,6.55
2022-09-12T20:03:59.033Z,5.97
2022-09-12T20:06:27.536Z,6.45
2022-09-12T20:08:55.359Z,6.28
2022-09-12T20:11:23.812Z,7.07
2022-09-12T20:13:51.245Z,6.78
2022-09-12T20:16:25.365Z,7.53
2022-09-12T20:18:55.250Z,7.70
2022-09-12T20:21:25.856Z,7.63
2022-09-12T20:23:52.946Z,7.95
2022-09-12T20:26:23.605Z,7.43
2022-09-12T20:28:54.444Z,7.85
2022-09-12T20:33:55.900Z,8.07
2022-09-12T20:36:26.842Z,7.30
2022-09-12T20:38:57.599Z,7.43
2022-09-12T20:41:30.141Z,7.63
2022-09-12T20:44:02.381Z,8.18
2022-09-12T20:46:30.762Z,7.65
2022-09-12T20:48:59.328Z,8.57
2022-09-12T20:51:27.921Z,8.48
2022-09-12T20:53:58.381Z,8.60
2022-09-12T20:56:27.668Z,8.20
2022-09-12T20:58:56.552Z,8.02
2022-09-12T21:01:25.487Z,8.13
2022-09-12T21:03:54.721Z,7.72
2022-09-12T21:06:22.930Z,8.10
2022-09-12T21:08:50.883Z,8.20
2022-09-12T21:11:19.615Z,9.10
2022-09-12T21:13:47.245Z,8.23
2022-09-12T21:16:20.529Z,8.05
2022-09-12T21:18:52.657Z,8.43
2022-09-12T21:21:19.665Z,7.90
2022-09-12T21:23:47.155Z,8.02
2022-09-12T21:26:14.203Z,7.65
2022-09-12T21:28:41.222Z,7.03
2022-09-12T21:31:14.924Z,7.45
2022-09-12T21:33:42.143Z,7.47
2022-09-12T21:36:09.917Z,7.25
2022-09-12T21:38:36.907Z,7.97
2022-09-12T21:41:04.790Z,7.47
2022-09-12T21:43:31.807Z,6.85
2022-09-12T21:45:59.881Z,7.10
2022-09-12T21:48:26.979Z,6.90
2022-09-12T21:50:54.208Z,7.28
2022-09-12T21:53:21.317Z,7.20
2022-09-12T21:55:48.306Z,7.32
2022-09-12T21:58:15.379Z,7.90
2022-09-12T22:00:42.867Z,7.97
2022-09-12T22:03:10.547Z,7.30
2022-09-12T22:05:40.411Z,7.38
2022-09-12T22:08:08.581Z,7.22
2022-09-12T22:10:36.594Z,6.63
2022-09-12T22:13:03.583Z,7.22
2022-09-12T22:15:45.929Z,6.18
2022-09-12T22:18:13.158Z,6.30
2022-09-12T22:20:40.171Z,6.50
2022-09-12T22:23:30.274Z,7.00
2022-09-12T22:25:57.639Z,6.93
2022-09-12T22:28:25.268Z,6.10
2022-09-12T22:30:54.528Z,5.90
2022-09-12T22:33:22.321Z,5.70
2022-09-12T22:35:49.361Z,6.00
2022-09-12T22:38:16.332Z,6.18
2022-09-12T22:40:44.115Z,6.03
2022-09-12T22:43:11.595Z,5.82
2022-09-12T22:45:41.930Z,6.38
2022-09-12T22:50:38.892Z,5.70
2022-09-12T22:53:05.852Z,5.97
2022-09-12T22:55:32.858Z,6.07
2022-09-12T22:58:00.036Z,6.47
2022-09-12T23:00:28.121Z,6.65
2022-09-12T23:02:55.708Z,7.35
2022-09-12T23:05:23.166Z,8.00
2022-09-12T23:07:51.169Z,8.88
2022-09-12T23:10:18.212Z,9.23
2022-09-12T23:12:45.163Z,10.95
2022-09-12T23:15:12.133Z,10.73
2022-09-12T23:17:39.129Z,11.20
2022-09-12T23:20:06.731Z,13.07
2022-09-12T23:22:36.338Z,12.48
2022-09-12T23:25:03.677Z,13.75
2022-09-12T23:27:30.898Z,13.43
2022-09-12T23:29:58.037Z,12.80
2022-09-12T23:32:25.153Z,13.13
2022-09-12T23:34:53.026Z,12.50
2022-09-12T23:37:21.821Z,11.55
2022-09-12T23:39:49.865Z,11.07
2022-09-12T23:42:17.479Z,11.30
2022-09-12T23:44:44.443Z,11.32
2022-09-12T23:47:11.424Z,10.15
2022-09-12T23:49:38.572Z,10.93
2022-09-12T23:52:05.581Z,10.65
2022-09-12T23:54:32.568Z,10.15
2022-09-12T23:56:59.553Z,9.77
2022-09-12T23:59:26.566Z,10.20
